createdAt,value
2022-11-29T00:03:37.409Z,7.10
2022-11-29T00:07:40.350Z,7.10
2022-11-29T00:12:01.103Z,7.10
2022-11-29T00:16:05.299Z,7.20
2022-11-29T00:20:11.468Z,7.20
2022-11-29T00:24:14.451Z,7.20
2022-11-29T00:28:17.486Z,7.20
2022-11-29T00:32:20.399Z,7.20
2022-11-29T00:36:25.420Z,7.20
2022-11-29T00:40:28.270Z,7.20
2022-11-29T00:44:31.085Z,7.30
2022-11-29T00:48:34.578Z,7.30
2022-11-29T00:52:38.726Z,7.30
2022-11-29T00:56:41.623Z,7.30
2022-11-29T01:00:44.805Z,7.30
2022-11-29T01:04:47.727Z,7.30
2022-11-29T01:08:52.012Z,7.30
2022-11-29T01:12:55.261Z,7.30
2022-11-29T01:16:58.152Z,7.30
2022-11-29T01:21:03.508Z,7.30
2022-11-29T01:25:09.955Z,7.30
2022-11-29T01:29:13.788Z,7.30
2022-11-29T01:33:16.609Z,7.30
2022-11-29T01:37:19.611Z,7.40
2022-11-29T01:41:25.525Z,7.30
2022-11-29T01:45:28.328Z,7.30
2022-11-29T01:49:35.191Z,7.30
2022-11-29T01:53:38.993Z,7.30
2022-11-29T01:57:44.604Z,7.30
2022-11-29T02:01:47.514Z,7.30
2022-11-29T02:05:53.605Z,7.30
2022-11-29T02:09:56.462Z,7.30
2022-11-29T02:14:16.243Z,7.30
2022-11-29T02:18:25.306Z,7.30
2022-11-29T02:22:33.935Z,7.30
2022-11-29T02:27:04.588Z,7.30
2022-11-29T02:31:49.550Z,7.30
2022-11-29T02:36:19.292Z,7.30
2022-11-29T02:40:38.017Z,7.30
2022-11-29T02:45:00.007Z,7.30
2022-11-29T02:49:14.671Z,7.30
2022-11-29T02:53:23.990Z,7.30
2022-11-29T02:57:34.433Z,7.30
2022-11-29T03:01:46.734Z,7.30
2022-11-29T03:05:56.360Z,7.30
2022-11-29T03:10:06.004Z,7.30
2022-11-29T03:14:18.285Z,7.30
2022-11-29T03:18:34.336Z,7.30
2022-11-29T03:22:46.785Z,7.30
2022-11-29T03:26:57.550Z,7.30
2022-11-29T03:31:07.702Z,7.30
2022-11-29T03:35:15.814Z,7.20
2022-11-29T03:39:21.951Z,7.20
2022-11-29T03:43:34.776Z,7.20
2022-11-29T03:47:43.146Z,7.20
2022-11-29T03:51:59.393Z,7.20
2022-11-29T03:56:03.268Z,7.20
2022-11-29T04:00:10.835Z,7.20
2022-11-29T04:04:47.489Z,7.20
2022-11-29T04:09:19.340Z,7.20
2022-11-29T04:13:53.470Z,7.20
2022-11-29T04:18:20.709Z,7.20
2022-11-29T04:22:44.314Z,7.20
2022-11-29T04:27:21.165Z,7.20
2022-11-29T04:31:38.095Z,7.20
2022-11-29T04:35:58.029Z,7.20
2022-11-29T04:40:35.746Z,7.20
2022-11-29T04:45:08.941Z,7.20
2022-11-29T04:49:26.738Z,7.30
2022-11-29T04:53:48.730Z,7.30
2022-11-29T04:57:58.586Z,7.20
2022-11-29T05:02:09.561Z,7.20
2022-11-29T05:06:24.211Z,7.20
2022-11-29T05:10:34.850Z,7.20
2022-11-29T05:14:51.569Z,7.30
2022-11-29T05:19:08.352Z,7.30
2022-11-29T05:23:27.927Z,7.20
2022-11-29T05:27:44.374Z,7.20
2022-11-29T05:32:05.885Z,7.20
2022-11-29T05:36:18.674Z,7.10
2022-11-29T05:40:45.215Z,7.10
2022-11-29T05:44:54.591Z,7.00
2022-11-29T05:49:05.898Z,7.10
2022-11-29T05:53:17.939Z,7.00
2022-11-29T05:57:37.303Z,7.00
2022-11-29T06:01:53.241Z,7.00
2022-11-29T06:06:00.627Z,7.00
2022-11-29T06:10:07.008Z,7.00
2022-11-29T06:14:20.902Z,7.00
2022-11-29T06:18:49.820Z,7.00
2022-11-29T06:23:12.089Z,7.10
2022-11-29T06:27:31.884Z,7.10
2022-11-29T06:31:40.660Z,7.10
2022-11-29T06:35:51.029Z,7.10
2022-11-29T06:39:55.519Z,7.10
2022-11-29T06:43:58.883Z,7.10
2022-11-29T06:48:04.630Z,7.10
2022-11-29T06:52:20.969Z,7.10
2022-11-29T06:56:30.195Z,7.10
2022-11-29T07:00:43.182Z,7.20
2022-11-29T07:05:03.767Z,7.20
2022-11-29T07:09:14.220Z,7.20
2022-11-29T07:13:18.900Z,7.20
2022-11-29T07:17:28.526Z,7.20
2022-11-29T07:21:45.834Z,7.20
2022-11-29T07:25:58.034Z,7.20
2022-11-29T07:30:12.372Z,7.20
2022-11-29T07:34:22.044Z,7.20
2022-11-29T07:38:40.346Z,7.20
2022-11-29T07:42:56.003Z,7.20
2022-11-29T07:46:58.940Z,7.20
2022-11-29T07:51:02.450Z,7.20
2022-11-29T07:55:06.150Z,7.20
2022-11-29T07:59:12.841Z,7.20
2022-11-29T08:03:16.034Z,7.20
2022-11-29T08:07:18.890Z,7.20
2022-11-29T08:11:21.761Z,7.30
2022-11-29T08:15:26.324Z,7.30
2022-11-29T08:19:29.177Z,7.30
2022-11-29T08:23:32.180Z,7.30
2022-11-29T08:27:36.344Z,7.30
2022-11-29T08:31:40.767Z,7.40
2022-11-29T08:35:43.647Z,7.40
2022-11-29T08:39:46.564Z,7.40
2022-11-29T08:43:49.410Z,7.40
2022-11-29T08:47:53.579Z,7.40
2022-11-29T08:52:17.083Z,7.50
2022-11-29T09:00:46.035Z,7.50
2022-11-29T09:04:50.305Z,7.50
2022-11-29T09:08:56.276Z,7.50
2022-11-29T09:12:59.134Z,7.60
2022-11-29T09:17:02.508Z,7.60
2022-11-29T09:21:09.029Z,7.60
2022-11-29T09:25:11.907Z,7.60
2022-11-29T09:29:16.330Z,7.70
2022-11-29T09:33:19.824Z,7.70
2022-11-29T09:37:24.024Z,7.70
2022-11-29T09:41:46.983Z,7.70
2022-11-29T09:45:56.945Z,7.70
2022-11-29T09:50:20.702Z,7.70
2022-11-29T09:54:37.229Z,7.80
2022-11-29T09:58:48.141Z,7.80
2022-11-29T10:02:55.093Z,7.80
2022-11-29T10:07:03.629Z,7.80
2022-11-29T10:11:18.437Z,7.80
2022-11-29T10:15:24.209Z,7.80
2022-11-29T10:19:32.695Z,7.90
2022-11-29T10:23:39.799Z,7.80
2022-11-29T10:27:44.079Z,7.90
2022-11-29T10:31:49.418Z,7.90
2022-11-29T10:35:56.825Z,7.90
2022-11-29T10:40:04.545Z,7.90
2022-11-29T10:44:13.700Z,7.90
2022-11-29T10:48:19.012Z,8.00
2022-11-29T10:52:23.997Z,8.00
2022-11-29T10:56:29.977Z,8.00
2022-11-29T11:00:48.659Z,8.00
2022-11-29T11:04:52.178Z,8.10
2022-11-29T11:08:57.180Z,8.10
2022-11-29T11:13:04.028Z,8.10
2022-11-29T11:17:26.167Z,8.10
2022-11-29T11:21:29.687Z,8.10
2022-11-29T11:25:35.093Z,8.10
2022-11-29T11:42:17.773Z,8.20
2022-11-29T11:46:20.986Z,8.20
2022-11-29T11:50:30.847Z,8.30
2022-11-29T11:54:34.390Z,8.20
2022-11-29T11:58:40.084Z,8.30
2022-11-29T12:02:45.721Z,8.30
2022-11-29T12:06:53.182Z,8.30
2022-11-29T12:11:06.892Z,8.30
2022-11-29T12:15:18.440Z,8.30
2022-11-29T12:19:26.299Z,8.30
2022-11-29T12:23:39.851Z,8.40
2022-11-29T12:27:42.699Z,8.40
2022-11-29T12:31:57.698Z,8.40
2022-11-29T12:36:15.007Z,8.40
2022-11-29T12:40:24.724Z,8.50
2022-11-29T12:44:38.382Z,8.50
2022-11-29T12:48:50.762Z,8.50
2022-11-29T12:53:03.168Z,8.50
2022-11-29T12:57:14.194Z,8.50
2022-11-29T13:01:23.488Z,8.50
2022-11-29T13:05:42.218Z,8.50
2022-11-29T13:10:04.350Z,8.50
2022-11-29T13:14:41.569Z,8.50
2022-11-29T13:18:43.809Z,8.50
2022-11-29T13:22:54.197Z,8.50
2022-11-29T13:26:58.183Z,8.50
2022-11-29T13:31:06.010Z,8.50
2022-11-29T13:35:19.644Z,8.50
2022-11-29T13:39:36.743Z,8.60
2022-11-29T13:43:45.399Z,8.50
2022-11-29T13:47:54.444Z,8.50
2022-11-29T13:52:05.877Z,8.60
2022-11-29T13:56:15.160Z,8.50
2022-11-29T14:00:33.369Z,8.50
2022-11-29T14:04:41.469Z,8.50
2022-11-29T14:09:22.475Z,8.50
2022-11-29T14:13:30.763Z,8.50
2022-11-29T14:17:46.631Z,8.40
2022-11-29T14:22:20.035Z,8.40
2022-11-29T14:26:28.738Z,8.40
2022-11-29T14:30:51.311Z,8.40
2022-11-29T14:34:59.151Z,8.30
2022-11-29T14:39:21.316Z,8.30
2022-11-29T14:43:30.404Z,8.30
2022-11-29T14:47:38.119Z,8.30
2022-11-29T14:52:01.043Z,8.30
2022-11-29T14:56:42.594Z,8.30
2022-11-29T15:01:10.753Z,8.30
2022-11-29T15:05:18.595Z,8.30
2022-11-29T15:09:22.264Z,8.30
2022-11-29T15:13:31.674Z,8.30
2022-11-29T15:17:42.898Z,8.20
2022-11-29T15:21:54.291Z,8.30
2022-11-29T15:26:01.795Z,8.30
2022-11-29T15:34:37.796Z,8.20
2022-11-29T15:38:46.099Z,8.20
2022-11-29T15:42:52.684Z,8.30
2022-11-29T15:46:55.645Z,8.20
2022-11-29T15:51:20.125Z,8.30
2022-11-29T15:55:23.274Z,8.20
2022-11-29T15:59:33.156Z,8.20
2022-11-29T16:03:38.954Z,8.20
2022-11-29T16:07:44.506Z,8.20
2022-11-29T16:11:48.717Z,8.20
2022-11-29T16:16:11.571Z,8.20
2022-11-29T16:20:24.377Z,8.20
2022-11-29T16:24:28.703Z,8.20
2022-11-29T16:28:35.589Z,8.20
2022-11-29T16:32:43.290Z,8.20
2022-11-29T16:36:46.185Z,8.20
2022-11-29T16:41:05.436Z,8.20
2022-11-29T16:45:34.163Z,8.20
2022-11-29T16:49:37.579Z,8.10
2022-11-29T16:53:42.453Z,8.20
2022-11-29T16:57:47.982Z,8.20
2022-11-29T17:01:51.063Z,8.20
2022-11-29T17:05:54.031Z,8.10
2022-11-29T17:09:57.651Z,8.10
2022-11-29T17:14:01.928Z,8.10
2022-11-29T17:18:04.965Z,8.10
2022-11-29T17:22:07.822Z,8.10
2022-11-29T17:26:10.840Z,8.10
2022-11-29T17:30:15.806Z,8.20
2022-11-29T17:34:18.665Z,8.10
2022-11-29T17:38:21.467Z,8.10
2022-11-29T17:42:25.353Z,8.10
2022-11-29T17:46:31.320Z,8.10
2022-11-29T17:50:34.175Z,8.20
2022-11-29T17:54:37.013Z,8.10
2022-11-29T17:58:40.703Z,8.10
2022-11-29T18:02:44.943Z,8.10
2022-11-29T18:06:49.997Z,8.10
2022-11-29T18:10:53.276Z,8.10
2022-11-29T18:14:56.106Z,8.10
2022-11-29T18:19:01.651Z,8.10
2022-11-29T18:23:07.951Z,8.10
2022-11-29T18:27:11.109Z,8.10
2022-11-29T18:31:16.231Z,8.10
2022-11-29T18:35:20.469Z,8.10
2022-11-29T18:39:24.914Z,8.10
2022-11-29T18:43:27.843Z,8.10
2022-11-29T18:47:32.839Z,8.10
2022-11-29T18:51:38.467Z,8.10
2022-11-29T18:55:41.448Z,8.10
2022-11-29T18:59:44.260Z,8.10
2022-11-29T19:03:50.323Z,8.10
2022-11-29T19:07:54.673Z,8.10
2022-11-29T19:11:57.557Z,8.10
2022-11-29T19:16:01.430Z,8.10
2022-11-29T19:20:04.657Z,8.10
2022-11-29T19:24:14.742Z,8.10
2022-11-29T19:28:18.583Z,8.00
2022-11-29T21:06:39.954Z,8.00
2022-11-29T21:10:42.798Z,8.10
2022-11-29T21:14:46.335Z,8.10
2022-11-29T21:18:49.758Z,8.00
2022-11-29T21:23:01.930Z,8.10
2022-11-29T21:27:05.761Z,8.00
2022-11-29T21:31:12.899Z,8.00
2022-11-29T21:35:16.444Z,8.00
2022-11-29T21:39:20.689Z,8.00
2022-11-29T21:43:50.278Z,8.00
2022-11-29T21:47:46.358Z,8.00
2022-11-29T21:51:49.226Z,8.00
2022-11-29T21:55:58.285Z,8.10
2022-11-29T22:00:01.119Z,8.10
2022-11-29T22:04:04.375Z,8.10
2022-11-29T22:08:09.218Z,8.10
2022-11-29T22:12:34.270Z,8.10
2022-11-29T22:16:41.448Z,8.10
2022-11-29T22:20:47.063Z,8.00
2022-11-29T22:24:50.192Z,8.10
2022-11-29T22:28:54.472Z,8.00
2022-11-29T22:32:57.471Z,8.00
2022-11-29T22:37:00.340Z,8.00
2022-11-29T22:41:05.124Z,8.00
2022-11-29T22:45:09.994Z,8.00
2022-11-29T22:49:12.820Z,8.00
2022-11-29T22:53:15.703Z,8.00
2022-11-29T22:57:20.816Z,8.00
2022-11-29T23:01:29.758Z,8.00
2022-11-29T23:05:34.273Z,8.00
2022-11-29T23:09:37.163Z,8.00
2022-11-29T23:13:42.467Z,8.00
2022-11-29T23:17:47.272Z,8.00
2022-11-29T23:21:50.148Z,8.00
2022-11-29T23:25:52.996Z,8.00
2022-11-29T23:29:55.901Z,8.00
2022-11-29T23:34:00.129Z,8.00
2022-11-29T23:38:03.017Z,8.00
2022-11-29T23:42:07.798Z,8.00
2022-11-29T23:46:15.054Z,7.90
2022-11-29T23:50:19.416Z,7.90
2022-11-29T23:54:22.293Z,7.90
2022-11-29T23:58:25.968Z,7.90
